Terminal Aerodrome Forecast
Issued by NWS

Home | Current Version | Previous Version | Text Only | Print | Product List | Glossary On
Versions: 1 2 3 4 5 6 7 8 9 10 11 12 13 14 15 16
139
FTUS41 KCAR 230528
TAFBHB
TAF
KBHB 230528Z 2306/2406 VRB02KT P6SM BKN060
     FM231200 19005KT P6SM VCSH OVC040
     FM231700 19010KT 6SM BR OVC008
     FM240200 21010G18KT 1SM BR VCSH BKN002=

USA.gov is the U.S. government's official web portal to all federal, state and local government web resources and services.